sensor_id;sensor_type;location;lat;lon;timestamp;pressure;altitude;pressure_sealevel;temperature;humidity
11053;BME280;55230;42.602;23.470;2023-07-31T00:02:25;93218.94;;;19.22;100.00
11053;BME280;55230;42.602;23.470;2023-07-31T00:04:52;93220.94;;;19.27;100.00
11053;BME280;55230;42.602;23.470;2023-07-31T00:07:18;93217.97;;;19.25;100.00
11053;BME280;55230;42.602;23.470;2023-07-31T00:09:46;93215.47;;;19.27;100.00
11053;BME280;55230;42.602;23.470;2023-07-31T00:12:14;93213.72;;;19.24;100.00
11053;BME280;55230;42.602;23.470;2023-07-31T00:14:41;93217.25;;;19.19;100.00
11053;BME280;55230;42.602;23.470;2023-07-31T00:17:08;93215.78;;;19.18;100.00
11053;BME280;55230;42.602;23.470;2023-07-31T00:19:34;93216.53;;;19.19;100.00
11053;BME280;55230;42.602;23.470;2023-07-31T00:22:01;93213.31;;;19.15;100.00
11053;BME280;55230;42.602;23.470;2023-07-31T00:24:27;93216.31;;;19.11;100.00
11053;BME280;55230;42.602;23.470;2023-07-31T00:26:55;93224.56;;;19.00;100.00
11053;BME280;55230;42.602;23.470;2023-07-31T00:29:21;93217.88;;;19.01;100.00
11053;BME280;55230;42.602;23.470;2023-07-31T00:31:48;93206.91;;;19.07;100.00
11053;BME280;55230;42.602;23.470;2023-07-31T00:34:14;93211.88;;;19.08;100.00
11053;BME280;55230;42.602;23.470;2023-07-31T00:36:41;93206.63;;;19.10;100.00
11053;BME280;55230;42.602;23.470;2023-07-31T00:39:07;93208.88;;;19.12;100.00
11053;BME280;55230;42.602;23.470;2023-07-31T00:41:34;93195.69;;;19.10;100.00
11053;BME280;55230;42.602;23.470;2023-07-31T00:44:02;93192.94;;;19.10;100.00
11053;BME280;55230;42.602;23.470;2023-07-31T00:46:28;93187.28;;;19.08;100.00
11053;BME280;55230;42.602;23.470;2023-07-31T00:48:55;93181.56;;;19.06;100.00
11053;BME280;55230;42.602;23.470;2023-07-31T00:51:22;93169.38;;;19.07;100.00
11053;BME280;55230;42.602;23.470;2023-07-31T00:53:49;93169.66;;;19.04;100.00
11053;BME280;55230;42.602;23.470;2023-07-31T00:56:15;93168.97;;;18.98;100.00
11053;BME280;55230;42.602;23.470;2023-07-31T00:58:42;93167.97;;;18.95;100.00
11053;BME280;55230;42.602;23.470;2023-07-31T01:01:10;93175.47;;;18.89;100.00
11053;BME280;55230;42.602;23.470;2023-07-31T01:03:36;93184.19;;;18.88;100.00
11053;BME280;55230;42.602;23.470;2023-07-31T01:06:07;93178.72;;;18.88;100.00
11053;BME280;55230;42.602;23.470;2023-07-31T01:08:37;93178.50;;;18.86;100.00
11053;BME280;55230;42.602;23.470;2023-07-31T01:11:07;93175.81;;;18.75;100.00
11053;BME280;55230;42.602;23.470;2023-07-31T01:13:36;93175.13;;;18.69;100.00
11053;BME280;55230;42.602;23.470;2023-07-31T01:16:03;93176.63;;;18.64;100.00
11053;BME280;55230;42.602;23.470;2023-07-31T01:18:31;93168.44;;;18.64;100.00
11053;BME280;55230;42.602;23.470;2023-07-31T01:20:59;93171.69;;;18.57;100.00
11053;BME280;55230;42.602;23.470;2023-07-31T01:23:39;93176.38;;;18.62;100.00
11053;BME280;55230;42.602;23.470;2023-07-31T01:26:12;93170.44;;;18.64;100.00
11053;BME280;55230;42.602;23.470;2023-07-31T01:28:45;93167.66;;;18.69;100.00
11053;BME280;55230;42.602;23.470;2023-07-31T01:31:14;93162.25;;;18.64;100.00
11053;BME280;55230;42.602;23.470;2023-07-31T01:33:42;93166.19;;;18.68;100.00
11053;BME280;55230;42.602;23.470;2023-07-31T01:36:09;93159.50;;;18.64;100.00
11053;BME280;55230;42.602;23.470;2023-07-31T01:38:36;93162.28;;;18.58;100.00
11053;BME280;55230;42.602;23.470;2023-07-31T01:41:02;93160.25;;;18.59;100.00
11053;BME280;55230;42.602;23.470;2023-07-31T01:43:30;93156.34;;;18.54;100.00
11053;BME280;55230;42.602;23.470;2023-07-31T01:45:56;93161.09;;;18.48;100.00
11053;BME280;55230;42.602;23.470;2023-07-31T01:48:23;93153.69;;;18.37;100.00
11053;BME280;55230;42.602;23.470;2023-07-31T01:50:49;93153.88;;;18.45;100.00
11053;BME280;55230;42.602;23.470;2023-07-31T01:53:16;93161.63;;;18.41;100.00
11053;BME280;55230;42.602;23.470;2023-07-31T01:55:42;93151.41;;;18.47;100.00
11053;BME280;55230;42.602;23.470;2023-07-31T01:58:09;93156.59;;;18.51;100.00
11053;BME280;55230;42.602;23.470;2023-07-31T02:00:37;93161.31;;;18.50;100.00
11053;BME280;55230;42.602;23.470;2023-07-31T02:03:04;93162.81;;;18.51;100.00
11053;BME280;55230;42.602;23.470;2023-07-31T02:05:30;93172.72;;;18.54;100.00
11053;BME280;55230;42.602;23.470;2023-07-31T02:07:57;93167.53;;;18.45;100.00
11053;BME280;55230;42.602;23.470;2023-07-31T02:10:23;93168.06;;;18.43;100.00
11053;BME280;55230;42.602;23.470;2023-07-31T02:12:49;93171.53;;;18.38;100.00
11053;BME280;55230;42.602;23.470;2023-07-31T02:15:16;93177.50;;;18.37;100.00
11053;BME280;55230;42.602;23.470;2023-07-31T02:17:45;93171.28;;;18.36;100.00
11053;BME280;55230;42.602;23.470;2023-07-31T02:20:11;93180.00;;;18.40;100.00
11053;BME280;55230;42.602;23.470;2023-07-31T02:22:38;93180.75;;;18.41;100.00
11053;BME280;55230;42.602;23.470;2023-07-31T02:25:04;93186.19;;;18.41;100.00
11053;BME280;55230;42.602;23.470;2023-07-31T02:27:31;93183.69;;;18.43;100.00
11053;BME280;55230;42.602;23.470;2023-07-31T02:29:57;93196.84;;;18.39;100.00
11053;BME280;55230;42.602;23.470;2023-07-31T02:32:25;93195.34;;;18.43;100.00
11053;BME280;55230;42.602;23.470;2023-07-31T02:34:53;93190.38;;;18.48;100.00
11053;BME280;55230;42.602;23.470;2023-07-31T02:37:19;93196.59;;;18.48;100.00
11053;BME280;55230;42.602;23.470;2023-07-31T02:39:46;93191.59;;;18.52;100.00
11053;BME280;55230;42.602;23.470;2023-07-31T02:42:12;93187.63;;;18.53;100.00
11053;BME280;55230;42.602;23.470;2023-07-31T02:44:39;93188.84;;;18.58;100.00
11053;BME280;55230;42.602;23.470;2023-07-31T02:47:05;93189.31;;;18.62;100.00
11053;BME280;55230;42.602;23.470;2023-07-31T02:49:32;93188.81;;;18.63;100.00
11053;BME280;55230;42.602;23.470;2023-07-31T02:51:59;93189.31;;;18.62;100.00
11053;BME280;55230;42.602;23.470;2023-07-31T02:54:26;93190.53;;;18.61;100.00
11053;BME280;55230;42.602;23.470;2023-07-31T02:56:52;93190.53;;;18.66;100.00
11053;BME280;55230;42.602;23.470;2023-07-31T02:59:19;93196.47;;;18.70;100.00
11053;BME280;55230;42.602;23.470;2023-07-31T03:01:46;93192.72;;;18.73;100.00
11053;BME280;55230;42.602;23.470;2023-07-31T03:04:13;93195.97;;;18.66;100.00
11053;BME280;55230;42.602;23.470;2023-07-31T03:06:39;93195.75;;;18.64;100.00
11053;BME280;55230;42.602;23.470;2023-07-31T03:09:07;93194.00;;;18.67;100.00
11053;BME280;55230;42.602;23.470;2023-07-31T03:11:34;93195.75;;;18.64;100.00
11053;BME280;55230;42.602;23.470;2023-07-31T03:14:00;93192.97;;;18.70;100.00
11053;BME280;55230;42.602;23.470;2023-07-31T03:16:27;93205.34;;;18.76;100.00
11053;BME280;55230;42.602;23.470;2023-07-31T03:18:53;93201.63;;;18.79;100.00
11053;BME280;55230;42.602;23.470;2023-07-31T03:21:20;93201.56;;;18.85;100.00
11053;BME280;55230;42.602;23.470;2023-07-31T03:23:46;93199.34;;;18.83;100.00
11053;BME280;55230;42.602;23.470;2023-07-31T03:26:14;93197.63;;;18.86;100.00
11053;BME280;55230;42.602;23.470;2023-07-31T03:28:41;93203.78;;;18.86;100.00
11053;BME280;55230;42.602;23.470;2023-07-31T03:31:07;93197.78;;;18.93;100.00
11053;BME280;55230;42.602;23.470;2023-07-31T03:33:34;93225.34;;;18.95;100.00
11053;BME280;55230;42.602;23.470;2023-07-31T03:36:00;93204.75;;;18.94;100.00
11053;BME280;55230;42.602;23.470;2023-07-31T03:38:27;93210.75;;;18.87;100.00
11053;BME280;55230;42.602;23.470;2023-07-31T03:40:54;93223.91;;;18.89;100.00
11053;BME280;55230;42.602;23.470;2023-07-31T03:43:22;93218.41;;;18.94;100.00
11053;BME280;55230;42.602;23.470;2023-07-31T03:45:50;93227.16;;;18.87;100.00
11053;BME280;55230;42.602;23.470;2023-07-31T03:48:16;93225.38;;;18.90;100.00
11053;BME280;55230;42.602;23.470;2023-07-31T03:50:43;93215.69;;;18.94;100.00
11053;BME280;55230;42.602;23.470;2023-07-31T03:53:09;93220.66;;;18.90;100.00
11053;BME280;55230;42.602;23.470;2023-07-31T03:55:36;93225.13;;;18.93;100.00
11053;BME280;55230;42.602;23.470;2023-07-31T03:58:02;93223.09;;;18.99;100.00
11053;BME280;55230;42.602;23.470;2023-07-31T04:00:30;93228.84;;;18.96;100.00
11053;BME280;55230;42.602;23.470;2023-07-31T04:02:57;93225.59;;;18.97;100.00
11053;BME280;55230;42.602;23.470;2023-07-31T04:05:23;93228.56;;;18.99;100.00
11053;BME280;55230;42.602;23.470;2023-07-31T04:07:50;93236.25;;;19.01;100.00
11053;BME280;55230;42.602;23.470;2023-07-31T04:10:16;93232.00;;;19.05;100.00
11053;BME280;55230;42.602;23.470;2023-07-31T04:12:43;93237.69;;;19.07;100.00
11053;BME280;55230;42.602;23.470;2023-07-31T04:15:09;93242.38;;;19.12;100.00
11053;BME280;55230;42.602;23.470;2023-07-31T04:17:37;93253.81;;;19.16;100.00
11053;BME280;55230;42.602;23.470;2023-07-31T04:20:04;93247.31;;;19.19;100.00
11053;BME280;55230;42.602;23.470;2023-07-31T04:22:31;93249.53;;;19.21;100.00
11053;BME280;55230;42.602;23.470;2023-07-31T04:24:57;93251.75;;;19.22;100.00
11053;BME280;55230;42.602;23.470;2023-07-31T04:27:24;93254.72;;;19.24;100.00
11053;BME280;55230;42.602;23.470;2023-07-31T04:29:50;93246.00;;;19.26;100.00
11053;BME280;55230;42.602;23.470;2023-07-31T04:32:17;93254.72;;;19.30;100.00
11053;BME280;55230;42.602;23.470;2023-07-31T04:34:46;93251.22;;;19.29;100.00
11053;BME280;55230;42.602;23.470;2023-07-31T04:37:12;93250.69;;;19.36;100.00
11053;BME280;55230;42.602;23.470;2023-07-31T04:39:39;93257.91;;;19.39;100.00
11053;BME280;55230;42.602;23.470;2023-07-31T04:42:06;93252.56;;;19.52;100.00
11053;BME280;55230;42.602;23.470;2023-07-31T04:44:32;93254.44;;;19.69;100.00
11053;BME280;55230;42.602;23.470;2023-07-31T04:46:58;93254.97;;;19.91;100.00
11053;BME280;55230;42.602;23.470;2023-07-31T04:49:25;93255.31;;;20.06;100.00
11053;BME280;55230;42.602;23.470;2023-07-31T04:51:53;93254.34;;;20.04;100.00
11053;BME280;55230;42.602;23.470;2023-07-31T04:54:19;93260.41;;;20.21;100.00
11053;BME280;55230;42.602;23.470;2023-07-31T04:56:46;93264.72;;;20.35;100.00
11053;BME280;55230;42.602;23.470;2023-07-31T04:59:13;93259.84;;;20.28;100.00
11053;BME280;55230;42.602;23.470;2023-07-31T05:01:39;93252.25;;;20.15;100.00
11053;BME280;55230;42.602;23.470;2023-07-31T05:04:06;93255.25;;;20.12;100.00
11053;BME280;55230;42.602;23.470;2023-07-31T05:06:32;93255.84;;;20.05;100.00
11053;BME280;55230;42.602;23.470;2023-07-31T05:09:00;93261.69;;;19.90;100.00
11053;BME280;55230;42.602;23.470;2023-07-31T05:11:27;93261.81;;;19.79;100.00
11053;BME280;55230;42.602;23.470;2023-07-31T05:13:53;93263.31;;;19.75;100.00
11053;BME280;55230;42.602;23.470;2023-07-31T05:16:20;93261.84;;;19.74;100.00
11053;BME280;55230;42.602;23.470;2023-07-31T05:18:47;93258.94;;;19.61;100.00
11053;BME280;55230;42.602;23.470;2023-07-31T05:21:13;93258.16;;;19.66;100.00
11053;BME280;55230;42.602;23.470;2023-07-31T05:23:40;93257.41;;;19.71;100.00
11053;BME280;55230;42.602;23.470;2023-07-31T05:26:08;93246.25;;;19.93;100.00
11053;BME280;55230;42.602;23.470;2023-07-31T05:28:34;93261.72;;;19.85;100.00
11053;BME280;55230;42.602;23.470;2023-07-31T05:31:02;93252.16;;;19.97;100.00
11053;BME280;55230;42.602;23.470;2023-07-31T05:33:28;93254.28;;;20.09;100.00
11053;BME280;55230;42.602;23.470;2023-07-31T05:35:55;93258.66;;;20.23;100.00
11053;BME280;55230;42.602;23.470;2023-07-31T05:38:21;93257.59;;;20.50;100.00
11053;BME280;55230;42.602;23.470;2023-07-31T05:40:48;93247.63;;;20.90;100.00
11053;BME280;55230;42.602;23.470;2023-07-31T05:43:16;93246.09;;;21.13;100.00
11053;BME280;55230;42.602;23.470;2023-07-31T05:45:42;93248.94;;;21.39;100.00
11053;BME280;55230;42.602;23.470;2023-07-31T05:48:09;93257.34;;;21.28;100.00
11053;BME280;55230;42.602;23.470;2023-07-31T05:50:35;93247.84;;;21.61;100.00
11053;BME280;55230;42.602;23.470;2023-07-31T05:53:04;93255.44;;;21.55;100.00
11053;BME280;55230;42.602;23.470;2023-07-31T05:55:30;93253.47;;;21.68;100.00
11053;BME280;55230;42.602;23.470;2023-07-31T05:57:57;93257.47;;;21.86;100.00
11053;BME280;55230;42.602;23.470;2023-07-31T06:00:25;93258.41;;;21.57;100.00
11053;BME280;55230;42.602;23.470;2023-07-31T06:02:52;93258.66;;;21.72;100.00
11053;BME280;55230;42.602;23.470;2023-07-31T06:05:19;93261.34;;;21.77;100.00
11053;BME280;55230;42.602;23.470;2023-07-31T06:07:45;93266.25;;;21.98;100.00
11053;BME280;55230;42.602;23.470;2023-07-31T06:10:12;93272.25;;;21.96;99.33
11053;BME280;55230;42.602;23.470;2023-07-31T06:12:38;93275.00;;;21.64;97.13
11053;BME280;55230;42.602;23.470;2023-07-31T06:15:05;93272.59;;;21.74;97.27
11053;BME280;55230;42.602;23.470;2023-07-31T06:17:33;93278.13;;;21.55;97.17
11053;BME280;55230;42.602;23.470;2023-07-31T06:20:00;93275.00;;;21.64;97.74
11053;BME280;55230;42.602;23.470;2023-07-31T06:22:26;93278.41;;;21.70;95.00
11053;BME280;55230;42.602;23.470;2023-07-31T06:24:53;93280.91;;;21.68;95.23
11053;BME280;55230;42.602;23.470;2023-07-31T06:27:19;93278.22;;;21.82;95.63
11053;BME280;55230;42.602;23.470;2023-07-31T06:29:46;93276.47;;;21.84;94.10
11053;BME280;55230;42.602;23.470;2023-07-31T06:32:13;93269.94;;;21.68;94.14
11053;BME280;55230;42.602;23.470;2023-07-31T06:34:40;93275.53;;;21.95;90.92
11053;BME280;55230;42.602;23.470;2023-07-31T06:37:07;93271.13;;;22.44;88.31
11053;BME280;55230;42.602;23.470;2023-07-31T06:39:33;93270.56;;;22.64;90.15
11053;BME280;55230;42.602;23.470;2023-07-31T06:42:00;93272.41;;;22.82;84.90
11053;BME280;55230;42.602;23.470;2023-07-31T06:44:27;93263.88;;;22.72;85.67
11053;BME280;55230;42.602;23.470;2023-07-31T06:46:53;93260.56;;;23.00;82.97
11053;BME280;55230;42.602;23.470;2023-07-31T06:49:19;93251.66;;;23.07;84.19
11053;BME280;55230;42.602;23.470;2023-07-31T06:51:47;93254.31;;;23.00;79.45
11053;BME280;55230;42.602;23.470;2023-07-31T06:54:14;93264.91;;;22.69;81.06
11053;BME280;55230;42.602;23.470;2023-07-31T06:56:40;93257.22;;;22.68;80.82
11053;BME280;55230;42.602;23.470;2023-07-31T06:59:07;93255.13;;;23.08;79.88
11053;BME280;55230;42.602;23.470;2023-07-31T07:01:33;93260.59;;;23.21;79.64
11053;BME280;55230;42.602;23.470;2023-07-31T07:04:00;93268.44;;;22.57;81.35
11053;BME280;55230;42.602;23.470;2023-07-31T07:06:26;93274.00;;;22.12;82.86
11053;BME280;55230;42.602;23.470;2023-07-31T07:08:54;93275.16;;;22.17;83.77
11053;BME280;55230;42.602;23.470;2023-07-31T07:11:21;93279.16;;;22.16;84.14
11053;BME280;55230;42.602;23.470;2023-07-31T07:13:47;93283.44;;;21.66;85.81
11053;BME280;55230;42.602;23.470;2023-07-31T07:16:14;93290.50;;;21.94;85.34
11053;BME280;55230;42.602;23.470;2023-07-31T07:18:41;93282.81;;;21.92;85.14
11053;BME280;55230;42.602;23.470;2023-07-31T07:21:07;93274.78;;;21.94;85.90
11053;BME280;55230;42.602;23.470;2023-07-31T07:23:34;93276.59;;;21.92;85.26
11053;BME280;55230;42.602;23.470;2023-07-31T07:26:01;93276.22;;;22.27;85.75
11053;BME280;55230;42.602;23.470;2023-07-31T07:28:28;93272.00;;;22.52;84.14
11053;BME280;55230;42.602;23.470;2023-07-31T07:30:54;93289.78;;;22.64;80.58
11053;BME280;55230;42.602;23.470;2023-07-31T07:33:21;93274.75;;;22.65;79.69
11053;BME280;55230;42.602;23.470;2023-07-31T07:35:47;93286.78;;;23.01;78.24
11053;BME280;55230;42.602;23.470;2023-07-31T07:38:14;93277.66;;;23.06;77.56
11053;BME280;55230;42.602;23.470;2023-07-31T07:40:41;93291.00;;;23.02;74.53
11053;BME280;55230;42.602;23.470;2023-07-31T07:43:09;93285.41;;;22.95;74.27
11053;BME280;55230;42.602;23.470;2023-07-31T07:45:35;93291.19;;;23.17;76.55
11053;BME280;55230;42.602;23.470;2023-07-31T07:48:02;93306.25;;;22.90;75.73
11053;BME280;55230;42.602;23.470;2023-07-31T07:50:28;93307.59;;;23.10;73.06
11053;BME280;55230;42.602;23.470;2023-07-31T07:52:55;93305.28;;;23.01;71.88
11053;BME280;55230;42.602;23.470;2023-07-31T07:55:21;93297.63;;;23.66;70.40
11053;BME280;55230;42.602;23.470;2023-07-31T07:57:48;93296.03;;;23.91;69.75
11053;BME280;55230;42.602;23.470;2023-07-31T08:00:17;93299.75;;;24.15;67.34
11053;BME280;55230;42.602;23.470;2023-07-31T08:02:43;93306.13;;;24.10;69.51
11053;BME280;55230;42.602;23.470;2023-07-31T08:05:10;93306.09;;;23.68;68.92
11053;BME280;55230;42.602;23.470;2023-07-31T08:07:36;93291.97;;;23.51;68.22
11053;BME280;55230;42.602;23.470;2023-07-31T08:10:03;93299.28;;;23.49;69.89
11053;BME280;55230;42.602;23.470;2023-07-31T08:12:29;93299.22;;;23.28;70.45
11053;BME280;55230;42.602;23.470;2023-07-31T08:14:56;93298.03;;;23.37;70.80
11053;BME280;55230;42.602;23.470;2023-07-31T08:17:24;93289.75;;;23.50;69.34
11053;BME280;55230;42.602;23.470;2023-07-31T08:19:50;93289.22;;;23.51;67.54
11053;BME280;55230;42.602;23.470;2023-07-31T08:22:17;93300.44;;;23.53;67.31
11053;BME280;55230;42.602;23.470;2023-07-31T08:24:43;93303.44;;;23.96;66.52
11053;BME280;55230;42.602;23.470;2023-07-31T08:27:10;93306.09;;;23.68;66.14
11053;BME280;55230;42.602;23.470;2023-07-31T08:29:36;93302.34;;;23.45;65.72
11053;BME280;55230;42.602;23.470;2023-07-31T08:32:03;93299.00;;;23.39;67.11
11053;BME280;55230;42.602;23.470;2023-07-31T08:34:31;93299.13;;;23.67;67.34
11053;BME280;55230;42.602;23.470;2023-07-31T08:36:58;93302.53;;;24.43;63.94
11053;BME280;55230;42.602;23.470;2023-07-31T08:39:24;93295.22;;;24.25;59.37
11053;BME280;55230;42.602;23.470;2023-07-31T08:41:51;93301.53;;;24.33;62.29
11053;BME280;55230;42.602;23.470;2023-07-31T08:44:17;93305.13;;;24.69;57.88
11053;BME280;55230;42.602;23.470;2023-07-31T08:46:44;93293.19;;;25.02;56.75
11053;BME280;55230;42.602;23.470;2023-07-31T08:49:11;93293.66;;;24.65;54.62
11053;BME280;55230;42.602;23.470;2023-07-31T08:51:39;93290.03;;;24.70;55.84
11053;BME280;55230;42.602;23.470;2023-07-31T08:54:07;93290.13;;;24.57;59.41
11053;BME280;55230;42.602;23.470;2023-07-31T08:56:33;93296.09;;;24.20;59.54
11053;BME280;55230;42.602;23.470;2023-07-31T08:59:01;93299.06;;;24.01;61.37
11053;BME280;55230;42.602;23.470;2023-07-31T09:01:29;93291.31;;;24.41;58.46
11053;BME280;55230;42.602;23.470;2023-07-31T09:03:56;93295.75;;;24.72;55.56
11053;BME280;55230;42.602;23.470;2023-07-31T09:06:24;93292.50;;;25.17;55.29
11053;BME280;55230;42.602;23.470;2023-07-31T09:08:52;93288.63;;;25.20;52.23
11053;BME280;55230;42.602;23.470;2023-07-31T09:11:19;93294.38;;;24.86;53.63
11053;BME280;55230;42.602;23.470;2023-07-31T09:13:47;93291.47;;;24.91;53.84
11053;BME280;55230;42.602;23.470;2023-07-31T09:16:14;93283.22;;;25.42;53.04
11053;BME280;55230;42.602;23.470;2023-07-31T09:18:53;93275.09;;;26.40;53.30
11053;BME280;55230;42.602;23.470;2023-07-31T09:21:21;93272.66;;;26.74;49.93
11053;BME280;55230;42.602;23.470;2023-07-31T09:23:49;93264.34;;;25.99;48.80
11053;BME280;55230;42.602;23.470;2023-07-31T09:26:30;93274.59;;;25.38;51.03
11053;BME280;55230;42.602;23.470;2023-07-31T09:28:56;93264.72;;;25.88;50.99
11053;BME280;55230;42.602;23.470;2023-07-31T09:31:31;93272.66;;;25.91;50.88
11053;BME280;55230;42.602;23.470;2023-07-31T09:33:57;93271.25;;;25.40;51.69
11053;BME280;55230;42.602;23.470;2023-07-31T09:36:26;93264.72;;;25.88;53.43
11053;BME280;55230;42.602;23.470;2023-07-31T09:38:54;93262.72;;;26.34;51.05
11053;BME280;55230;42.602;23.470;2023-07-31T09:41:21;93266.94;;;26.65;48.87
11053;BME280;55230;42.602;23.470;2023-07-31T09:43:54;93255.19;;;26.11;48.43
11053;BME280;55230;42.602;23.470;2023-07-31T09:46:20;93260.72;;;26.11;51.13
11053;BME280;55230;42.602;23.470;2023-07-31T09:48:47;93256.66;;;26.28;48.51
11053;BME280;55230;42.602;23.470;2023-07-31T09:51:13;93257.59;;;26.23;48.77
11053;BME280;55230;42.602;23.470;2023-07-31T09:53:40;93251.09;;;25.90;48.80
11053;BME280;55230;42.602;23.470;2023-07-31T09:56:06;93256.28;;;26.31;48.01
11053;BME280;55230;42.602;23.470;2023-07-31T09:58:34;93250.34;;;26.57;46.18
11053;BME280;55230;42.602;23.470;2023-07-31T10:01:02;93249.97;;;26.61;47.37
11053;BME280;55230;42.602;23.470;2023-07-31T10:03:29;93257.59;;;26.23;47.94
11053;BME280;55230;42.602;23.470;2023-07-31T10:05:56;93255.56;;;26.08;48.89
11053;BME280;55230;42.602;23.470;2023-07-31T10:08:24;93252.03;;;26.30;47.66
11053;BME280;55230;42.602;23.470;2023-07-31T10:10:55;93253.72;;;26.26;48.23
11053;BME280;55230;42.602;23.470;2023-07-31T10:13:24;93248.31;;;25.82;50.51
11053;BME280;55230;42.602;23.470;2023-07-31T10:15:51;93254.44;;;25.88;50.45
11053;BME280;55230;42.602;23.470;2023-07-31T10:18:19;93251.88;;;26.20;50.40
11053;BME280;55230;42.602;23.470;2023-07-31T10:20:46;93245.19;;;26.01;51.03
11053;BME280;55230;42.602;23.470;2023-07-31T10:23:13;93249.19;;;25.47;50.22
11053;BME280;55230;42.602;23.470;2023-07-31T10:25:41;93252.88;;;25.50;50.25
11053;BME280;55230;42.602;23.470;2023-07-31T10:28:08;93241.31;;;25.66;50.10
11053;BME280;55230;42.602;23.470;2023-07-31T10:30:36;93254.78;;;25.77;52.30
11053;BME280;55230;42.602;23.470;2023-07-31T10:33:04;93249.25;;;25.92;50.27
11053;BME280;55230;42.602;23.470;2023-07-31T10:35:32;93245.59;;;25.90;49.84
11053;BME280;55230;42.602;23.470;2023-07-31T10:38:08;93248.47;;;25.54;49.83
11053;BME280;55230;42.602;23.470;2023-07-31T10:40:35;93249.56;;;25.44;50.90
11053;BME280;55230;42.602;23.470;2023-07-31T10:43:02;93236.69;;;25.46;49.73
11053;BME280;55230;42.602;23.470;2023-07-31T10:45:30;93231.16;;;25.46;48.61
11053;BME280;55230;42.602;23.470;2023-07-31T10:47:58;93228.97;;;25.52;49.78
11053;BME280;55230;42.602;23.470;2023-07-31T10:50:25;93231.94;;;25.84;49.15
11053;BME280;55230;42.602;23.470;2023-07-31T10:52:54;93241.72;;;25.93;50.02
11053;BME280;55230;42.602;23.470;2023-07-31T10:55:27;93233.41;;;25.85;49.10
11053;BME280;55230;42.602;23.470;2023-07-31T10:57:55;93226.91;;;25.38;49.32
11053;BME280;55230;42.602;23.470;2023-07-31T11:00:22;93222.88;;;25.46;48.40
11053;BME280;55230;42.602;23.470;2023-07-31T11:02:58;93219.94;;;25.59;49.90
11053;BME280;55230;42.602;23.470;2023-07-31T11:08:14;93218.13;;;26.30;46.62
11053;BME280;55230;42.602;23.470;2023-07-31T11:10:41;93212.00;;;26.69;47.08
11053;BME280;55230;42.602;23.470;2023-07-31T11:13:08;93227.09;;;26.60;45.41
11053;BME280;55230;42.602;23.470;2023-07-31T11:15:34;93221.63;;;25.92;46.23
11053;BME280;55230;42.602;23.470;2023-07-31T11:18:01;93219.78;;;25.80;46.92
11053;BME280;55230;42.602;23.470;2023-07-31T11:20:30;93210.56;;;25.77;47.33
11053;BME280;55230;42.602;23.470;2023-07-31T11:22:58;93211.31;;;26.08;47.22
11053;BME280;55230;42.602;23.470;2023-07-31T11:25:26;93219.03;;;26.40;45.87
11053;BME280;55230;42.602;23.470;2023-07-31T11:27:52;93217.59;;;26.08;46.42
11053;BME280;55230;42.602;23.470;2023-07-31T11:30:21;93216.66;;;25.98;46.21
11053;BME280;55230;42.602;23.470;2023-07-31T11:32:47;93211.69;;;26.12;46.62
11053;BME280;55230;42.602;23.470;2023-07-31T11:35:14;93210.94;;;26.34;46.21
11053;BME280;55230;42.602;23.470;2023-07-31T11:37:41;93202.03;;;26.58;45.46
11053;BME280;55230;42.602;23.470;2023-07-31T11:40:08;93205.06;;;26.23;46.02
11053;BME280;55230;42.602;23.470;2023-07-31T11:42:36;93208.72;;;26.25;46.71
11053;BME280;55230;42.602;23.470;2023-07-31T11:45:03;93208.34;;;26.29;45.83
11053;BME280;55230;42.602;23.470;2023-07-31T11:47:29;93209.84;;;26.22;45.87
11053;BME280;55230;42.602;23.470;2023-07-31T11:49:59;93210.19;;;26.41;44.97
11053;BME280;55230;42.602;23.470;2023-07-31T11:52:26;93199.19;;;26.03;44.44
11053;BME280;55230;42.602;23.470;2023-07-31T11:54:53;93200.66;;;26.04;44.08
11053;BME280;55230;42.602;23.470;2023-07-31T11:57:20;93198.06;;;25.91;44.32
11053;BME280;55230;42.602;23.470;2023-07-31T11:59:48;93204.13;;;25.97;44.50
11053;BME280;55230;42.602;23.470;2023-07-31T12:02:15;93198.06;;;25.91;44.70
11053;BME280;55230;42.602;23.470;2023-07-31T12:04:43;93198.41;;;25.80;44.82
11053;BME280;55230;42.602;23.470;2023-07-31T12:07:09;93188.84;;;25.96;44.91
11053;BME280;55230;42.602;23.470;2023-07-31T12:09:37;93192.69;;;26.23;44.78
11053;BME280;55230;42.602;23.470;2023-07-31T12:12:07;93189.13;;;26.68;44.33
11053;BME280;55230;42.602;23.470;2023-07-31T12:14:34;93188.56;;;26.62;44.41
11053;BME280;55230;42.602;23.470;2023-07-31T12:17:03;93194.94;;;26.87;45.18
11053;BME280;55230;42.602;23.470;2023-07-31T12:19:32;93185.19;;;27.34;43.70
11053;BME280;55230;42.602;23.470;2023-07-31T12:21:58;93176.56;;;27.54;43.02
11053;BME280;55230;42.602;23.470;2023-07-31T12:24:25;93172.75;;;27.42;42.67
11053;BME280;55230;42.602;23.470;2023-07-31T12:26:52;93169.91;;;27.50;42.35
11053;BME280;55230;42.602;23.470;2023-07-31T12:29:20;93174.41;;;27.94;42.41
11053;BME280;55230;42.602;23.470;2023-07-31T12:31:46;93170.88;;;28.18;41.36
11053;BME280;55230;42.602;23.470;2023-07-31T12:34:17;93170.94;;;27.62;41.20
11053;BME280;55230;42.602;23.470;2023-07-31T12:36:45;93169.63;;;27.38;42.95
11053;BME280;55230;42.602;23.470;2023-07-31T12:39:14;93157.72;;;27.77;40.57
11053;BME280;55230;42.602;23.470;2023-07-31T12:41:40;93168.78;;;27.53;41.61
11053;BME280;55230;42.602;23.470;2023-07-31T12:44:07;93159.69;;;27.35;42.21
11053;BME280;55230;42.602;23.470;2023-07-31T12:46:34;93162.28;;;27.25;42.43
11053;BME280;55230;42.602;23.470;2023-07-31T12:49:01;93156.63;;;27.16;42.62